sensor_id;sensor_type;location;lat;lon;timestamp;P1;durP1;ratioP1;P2;durP2;ratioP2
26600;SDS011;14241;49.260;10.496;2023-11-19T00:00:38;10.27;;;9.37;;
26600;SDS011;14241;49.260;10.496;2023-11-19T00:03:03;11.50;;;10.40;;
26600;SDS011;14241;49.260;10.496;2023-11-19T00:05:28;10.98;;;9.98;;
26600;SDS011;14241;49.260;10.496;2023-11-19T00:07:54;10.83;;;9.83;;
26600;SDS011;14241;49.260;10.496;2023-11-19T00:10:19;10.93;;;9.93;;
26600;SDS011;14241;49.260;10.496;2023-11-19T00:12:45;11.38;;;10.40;;
26600;SDS011;14241;49.260;10.496;2023-11-19T00:15:10;11.10;;;10.20;;
26600;SDS011;14241;49.260;10.496;2023-11-19T00:17:36;11.40;;;10.38;;
26600;SDS011;14241;49.260;10.496;2023-11-19T00:20:01;11.73;;;10.63;;
26600;SDS011;14241;49.260;10.496;2023-11-19T00:22:30;12.07;;;11.02;;
26600;SDS011;14241;49.260;10.496;2023-11-19T00:24:55;12.53;;;11.37;;
26600;SDS011;14241;49.260;10.496;2023-11-19T00:27:21;12.00;;;10.85;;
26600;SDS011;14241;49.260;10.496;2023-11-19T00:29:47;11.93;;;10.83;;
26600;SDS011;14241;49.260;10.496;2023-11-19T00:32:12;11.03;;;10.07;;
26600;SDS011;14241;49.260;10.496;2023-11-19T00:34:37;12.10;;;11.07;;
26600;SDS011;14241;49.260;10.496;2023-11-19T00:37:03;11.98;;;10.88;;
26600;SDS011;14241;49.260;10.496;2023-11-19T00:39:29;11.65;;;10.52;;
26600;SDS011;14241;49.260;10.496;2023-11-19T00:41:54;11.37;;;10.37;;
26600;SDS011;14241;49.260;10.496;2023-11-19T00:44:19;11.70;;;10.70;;
26600;SDS011;14241;49.260;10.496;2023-11-19T00:46:44;11.32;;;10.30;;
26600;SDS011;14241;49.260;10.496;2023-11-19T00:49:09;11.50;;;10.50;;
26600;SDS011;14241;49.260;10.496;2023-11-19T00:51:36;10.55;;;9.65;;
26600;SDS011;14241;49.260;10.496;2023-11-19T00:54:01;11.15;;;10.15;;
26600;SDS011;14241;49.260;10.496;2023-11-19T00:56:27;10.45;;;9.45;;
26600;SDS011;14241;49.260;10.496;2023-11-19T00:58:53;9.95;;;9.15;;
26600;SDS011;14241;49.260;10.496;2023-11-19T01:01:18;11.50;;;10.50;;
26600;SDS011;14241;49.260;10.496;2023-11-19T01:03:44;11.32;;;10.25;;
26600;SDS011;14241;49.260;10.496;2023-11-19T01:06:09;12.47;;;11.27;;
26600;SDS011;14241;49.260;10.496;2023-11-19T01:08:34;13.83;;;12.47;;
26600;SDS011;14241;49.260;10.496;2023-11-19T01:11:01;14.07;;;12.88;;
26600;SDS011;14241;49.260;10.496;2023-11-19T01:13:26;13.45;;;12.25;;
26600;SDS011;14241;49.260;10.496;2023-11-19T01:15:51;13.33;;;12.03;;
26600;SDS011;14241;49.260;10.496;2023-11-19T01:18:16;13.37;;;12.17;;
26600;SDS011;14241;49.260;10.496;2023-11-19T01:20:41;13.03;;;11.73;;
26600;SDS011;14241;49.260;10.496;2023-11-19T01:23:07;13.02;;;11.93;;
26600;SDS011;14241;49.260;10.496;2023-11-19T01:25:32;13.20;;;12.05;;
26600;SDS011;14241;49.260;10.496;2023-11-19T01:27:59;12.73;;;11.57;;
26600;SDS011;14241;49.260;10.496;2023-11-19T01:30:24;12.43;;;11.33;;
26600;SDS011;14241;49.260;10.496;2023-11-19T01:32:49;13.00;;;11.85;;
26600;SDS011;14241;49.260;10.496;2023-11-19T01:35:15;12.38;;;11.32;;
26600;SDS011;14241;49.260;10.496;2023-11-19T01:37:40;12.50;;;11.40;;
26600;SDS011;14241;49.260;10.496;2023-11-19T01:40:05;14.23;;;12.93;;
26600;SDS011;14241;49.260;10.496;2023-11-19T01:42:39;13.63;;;12.43;;
26600;SDS011;14241;49.260;10.496;2023-11-19T01:45:06;14.57;;;13.23;;
26600;SDS011;14241;49.260;10.496;2023-11-19T01:47:32;14.18;;;12.88;;
26600;SDS011;14241;49.260;10.496;2023-11-19T01:49:58;13.77;;;12.48;;
26600;SDS011;14241;49.260;10.496;2023-11-19T01:52:24;14.70;;;13.40;;
26600;SDS011;14241;49.260;10.496;2023-11-19T01:54:50;14.77;;;13.48;;
26600;SDS011;14241;49.260;10.496;2023-11-19T01:57:16;14.80;;;13.40;;
26600;SDS011;14241;49.260;10.496;2023-11-19T01:59:41;14.02;;;12.73;;
26600;SDS011;14241;49.260;10.496;2023-11-19T02:02:07;13.05;;;11.85;;
26600;SDS011;14241;49.260;10.496;2023-11-19T02:04:32;13.13;;;11.70;;
26600;SDS011;14241;49.260;10.496;2023-11-19T02:06:58;13.15;;;11.63;;
26600;SDS011;14241;49.260;10.496;2023-11-19T02:09:23;12.80;;;11.60;;
26600;SDS011;14241;49.260;10.496;2023-11-19T02:11:48;12.60;;;11.40;;
26600;SDS011;14241;49.260;10.496;2023-11-19T02:14:16;10.93;;;10.02;;
26600;SDS011;14241;49.260;10.496;2023-11-19T02:16:41;12.30;;;11.13;;
26600;SDS011;14241;49.260;10.496;2023-11-19T02:19:07;12.38;;;11.27;;
26600;SDS011;14241;49.260;10.496;2023-11-19T02:21:33;12.40;;;11.20;;
26600;SDS011;14241;49.260;10.496;2023-11-19T02:23:58;13.77;;;12.37;;
26600;SDS011;14241;49.260;10.496;2023-11-19T02:26:34;12.27;;;11.25;;
26600;SDS011;14241;49.260;10.496;2023-11-19T02:29:01;12.00;;;10.90;;
26600;SDS011;14241;49.260;10.496;2023-11-19T02:31:27;8.98;;;8.15;;
26600;SDS011;14241;49.260;10.496;2023-11-19T02:33:53;7.30;;;6.67;;
26600;SDS011;14241;49.260;10.496;2023-11-19T02:36:18;5.20;;;4.80;;
26600;SDS011;14241;49.260;10.496;2023-11-19T02:38:43;5.03;;;4.60;;
26600;SDS011;14241;49.260;10.496;2023-11-19T02:41:08;4.80;;;4.30;;
26600;SDS011;14241;49.260;10.496;2023-11-19T02:43:34;5.43;;;4.97;;
26600;SDS011;14241;49.260;10.496;2023-11-19T02:46:03;4.32;;;3.92;;
26600;SDS011;14241;49.260;10.496;2023-11-19T02:48:35;3.97;;;3.65;;
26600;SDS011;14241;49.260;10.496;2023-11-19T02:51:00;4.05;;;3.75;;
26600;SDS011;14241;49.260;10.496;2023-11-19T02:53:26;5.10;;;3.63;;
26600;SDS011;14241;49.260;10.496;2023-11-19T02:55:53;4.15;;;3.05;;
26600;SDS011;14241;49.260;10.496;2023-11-19T02:58:25;3.65;;;3.30;;
26600;SDS011;14241;49.260;10.496;2023-11-19T03:00:53;3.10;;;2.90;;
26600;SDS011;14241;49.260;10.496;2023-11-19T03:03:34;3.17;;;2.85;;
26600;SDS011;14241;49.260;10.496;2023-11-19T03:06:06;2.58;;;2.38;;
26600;SDS011;14241;49.260;10.496;2023-11-19T03:08:32;2.55;;;2.35;;
26600;SDS011;14241;49.260;10.496;2023-11-19T03:10:58;2.20;;;2.00;;
26600;SDS011;14241;49.260;10.496;2023-11-19T03:13:24;2.53;;;1.90;;
26600;SDS011;14241;49.260;10.496;2023-11-19T03:15:49;1.60;;;1.50;;
26600;SDS011;14241;49.260;10.496;2023-11-19T03:18:14;1.70;;;1.60;;
26600;SDS011;14241;49.260;10.496;2023-11-19T03:20:39;1.65;;;1.55;;
26600;SDS011;14241;49.260;10.496;2023-11-19T03:23:05;1.70;;;1.60;;
26600;SDS011;14241;49.260;10.496;2023-11-19T03:25:31;3.28;;;1.90;;
26600;SDS011;14241;49.260;10.496;2023-11-19T03:28:00;1.63;;;1.52;;
26600;SDS011;14241;49.260;10.496;2023-11-19T03:30:27;5.50;;;1.55;;
26600;SDS011;14241;49.260;10.496;2023-11-19T03:32:53;1.92;;;1.83;;
26600;SDS011;14241;49.260;10.496;2023-11-19T03:35:18;1.73;;;1.63;;
26600;SDS011;14241;49.260;10.496;2023-11-19T03:37:43;3.13;;;1.70;;
26600;SDS011;14241;49.260;10.496;2023-11-19T03:40:09;2.63;;;1.90;;
26600;SDS011;14241;49.260;10.496;2023-11-19T03:42:35;2.33;;;1.80;;
26600;SDS011;14241;49.260;10.496;2023-11-19T03:45:00;3.20;;;1.90;;
26600;SDS011;14241;49.260;10.496;2023-11-19T03:47:25;1.90;;;1.80;;
26600;SDS011;14241;49.260;10.496;2023-11-19T03:49:51;2.00;;;1.80;;
26600;SDS011;14241;49.260;10.496;2023-11-19T03:52:16;2.22;;;1.90;;
26600;SDS011;14241;49.260;10.496;2023-11-19T03:54:41;3.60;;;1.70;;
26600;SDS011;14241;49.260;10.496;2023-11-19T03:57:07;2.00;;;1.80;;
26600;SDS011;14241;49.260;10.496;2023-11-19T03:59:32;2.22;;;1.80;;
26600;SDS011;14241;49.260;10.496;2023-11-19T04:01:58;2.35;;;2.15;;
26600;SDS011;14241;49.260;10.496;2023-11-19T04:04:25;2.40;;;2.20;;
26600;SDS011;14241;49.260;10.496;2023-11-19T04:06:50;3.13;;;2.00;;
26600;SDS011;14241;49.260;10.496;2023-11-19T04:09:15;2.10;;;2.00;;
26600;SDS011;14241;49.260;10.496;2023-11-19T04:11:41;1.75;;;1.65;;
26600;SDS011;14241;49.260;10.496;2023-11-19T04:14:06;1.83;;;1.73;;
26600;SDS011;14241;49.260;10.496;2023-11-19T04:16:31;2.33;;;1.90;;
26600;SDS011;14241;49.260;10.496;2023-11-19T04:18:56;2.10;;;1.87;;
26600;SDS011;14241;49.260;10.496;2023-11-19T04:21:22;1.90;;;1.80;;
26600;SDS011;14241;49.260;10.496;2023-11-19T04:23:48;2.00;;;1.90;;
26600;SDS011;14241;49.260;10.496;2023-11-19T04:26:13;2.38;;;1.65;;
26600;SDS011;14241;49.260;10.496;2023-11-19T04:28:38;2.10;;;1.93;;
26600;SDS011;14241;49.260;10.496;2023-11-19T04:31:04;2.77;;;1.77;;
26600;SDS011;14241;49.260;10.496;2023-11-19T04:33:29;1.80;;;1.70;;
26600;SDS011;14241;49.260;10.496;2023-11-19T04:35:54;2.67;;;1.53;;
26600;SDS011;14241;49.260;10.496;2023-11-19T04:38:20;2.10;;;1.90;;
26600;SDS011;14241;49.260;10.496;2023-11-19T04:40:45;1.70;;;1.60;;
26600;SDS011;14241;49.260;10.496;2023-11-19T04:43:10;1.60;;;1.50;;
26600;SDS011;14241;49.260;10.496;2023-11-19T04:45:35;2.00;;;1.80;;
26600;SDS011;14241;49.260;10.496;2023-11-19T04:48:00;1.87;;;1.77;;
26600;SDS011;14241;49.260;10.496;2023-11-19T04:50:25;2.13;;;1.93;;
26600;SDS011;14241;49.260;10.496;2023-11-19T04:52:52;1.80;;;1.70;;
26600;SDS011;14241;49.260;10.496;2023-11-19T04:55:17;2.13;;;1.90;;
26600;SDS011;14241;49.260;10.496;2023-11-19T04:57:43;2.45;;;2.10;;
26600;SDS011;14241;49.260;10.496;2023-11-19T05:00:08;4.13;;;2.17;;
26600;SDS011;14241;49.260;10.496;2023-11-19T05:02:35;2.30;;;2.13;;
26600;SDS011;14241;49.260;10.496;2023-11-19T05:05:01;2.40;;;2.20;;
26600;SDS011;14241;49.260;10.496;2023-11-19T05:07:26;3.00;;;2.10;;
26600;SDS011;14241;49.260;10.496;2023-11-19T05:09:51;1.97;;;1.87;;
26600;SDS011;14241;49.260;10.496;2023-11-19T05:12:16;2.13;;;1.70;;
26600;SDS011;14241;49.260;10.496;2023-11-19T05:14:42;1.83;;;1.73;;
26600;SDS011;14241;49.260;10.496;2023-11-19T05:17:14;2.13;;;1.60;;
26600;SDS011;14241;49.260;10.496;2023-11-19T05:19:39;1.67;;;1.57;;
26600;SDS011;14241;49.260;10.496;2023-11-19T05:22:04;1.43;;;1.33;;
26600;SDS011;14241;49.260;10.496;2023-11-19T05:24:31;1.43;;;1.30;;
26600;SDS011;14241;49.260;10.496;2023-11-19T05:26:56;1.40;;;1.30;;
26600;SDS011;14241;49.260;10.496;2023-11-19T05:29:21;1.20;;;1.10;;
26600;SDS011;14241;49.260;10.496;2023-11-19T05:31:46;1.97;;;1.03;;
26600;SDS011;14241;49.260;10.496;2023-11-19T05:34:12;0.90;;;0.90;;
26600;SDS011;14241;49.260;10.496;2023-11-19T05:36:40;1.10;;;1.00;;
26600;SDS011;14241;49.260;10.496;2023-11-19T05:39:05;0.90;;;0.90;;
26600;SDS011;14241;49.260;10.496;2023-11-19T05:41:30;0.80;;;0.80;;
26600;SDS011;14241;49.260;10.496;2023-11-19T05:43:55;0.80;;;0.80;;
26600;SDS011;14241;49.260;10.496;2023-11-19T05:46:21;0.80;;;0.80;;
26600;SDS011;14241;49.260;10.496;2023-11-19T05:48:46;0.77;;;0.77;;
26600;SDS011;14241;49.260;10.496;2023-11-19T05:51:12;0.75;;;0.75;;
26600;SDS011;14241;49.260;10.496;2023-11-19T05:53:37;0.70;;;0.70;;
26600;SDS011;14241;49.260;10.496;2023-11-19T05:56:02;0.80;;;0.80;;
26600;SDS011;14241;49.260;10.496;2023-11-19T05:58:29;0.80;;;0.80;;
26600;SDS011;14241;49.260;10.496;2023-11-19T06:00:54;0.70;;;0.70;;
26600;SDS011;14241;49.260;10.496;2023-11-19T06:03:20;0.73;;;0.73;;
26600;SDS011;14241;49.260;10.496;2023-11-19T06:05:46;1.23;;;0.80;;
26600;SDS011;14241;49.260;10.496;2023-11-19T06:08:11;0.80;;;0.80;;
26600;SDS011;14241;49.260;10.496;2023-11-19T06:10:38;1.52;;;0.77;;
26600;SDS011;14241;49.260;10.496;2023-11-19T06:13:03;0.85;;;0.70;;
26600;SDS011;14241;49.260;10.496;2023-11-19T06:15:30;1.55;;;0.70;;
26600;SDS011;14241;49.260;10.496;2023-11-19T06:17:55;0.97;;;0.87;;
26600;SDS011;14241;49.260;10.496;2023-11-19T06:20:20;1.63;;;0.77;;
26600;SDS011;14241;49.260;10.496;2023-11-19T06:22:46;0.68;;;0.68;;
26600;SDS011;14241;49.260;10.496;2023-11-19T06:25:11;0.85;;;0.70;;
26600;SDS011;14241;49.260;10.496;2023-11-19T06:27:39;0.70;;;0.70;;
26600;SDS011;14241;49.260;10.496;2023-11-19T06:30:04;0.67;;;0.53;;
26600;SDS011;14241;49.260;10.496;2023-11-19T06:32:30;1.40;;;0.60;;
26600;SDS011;14241;49.260;10.496;2023-11-19T06:34:55;0.52;;;0.52;;
26600;SDS011;14241;49.260;10.496;2023-11-19T06:37:22;1.15;;;0.60;;
26600;SDS011;14241;49.260;10.496;2023-11-19T06:39:47;0.60;;;0.60;;
26600;SDS011;14241;49.260;10.496;2023-11-19T06:42:13;0.60;;;0.60;;
26600;SDS011;14241;49.260;10.496;2023-11-19T06:44:38;1.80;;;1.10;;
26600;SDS011;14241;49.260;10.496;2023-11-19T06:47:03;0.57;;;0.57;;
26600;SDS011;14241;49.260;10.496;2023-11-19T06:49:28;0.80;;;0.60;;
26600;SDS011;14241;49.260;10.496;2023-11-19T06:51:53;0.50;;;0.50;;
26600;SDS011;14241;49.260;10.496;2023-11-19T06:54:18;0.60;;;0.60;;
26600;SDS011;14241;49.260;10.496;2023-11-19T06:56:44;1.00;;;0.60;;
26600;SDS011;14241;49.260;10.496;2023-11-19T06:59:09;0.70;;;0.70;;
26600;SDS011;14241;49.260;10.496;2023-11-19T07:01:35;0.65;;;0.63;;
26600;SDS011;14241;49.260;10.496;2023-11-19T07:04:01;0.70;;;0.70;;
26600;SDS011;14241;49.260;10.496;2023-11-19T07:06:32;0.70;;;0.70;;
26600;SDS011;14241;49.260;10.496;2023-11-19T07:08:58;1.27;;;0.70;;
26600;SDS011;14241;49.260;10.496;2023-11-19T07:11:23;0.70;;;0.70;;
26600;SDS011;14241;49.260;10.496;2023-11-19T07:13:48;0.80;;;0.80;;
26600;SDS011;14241;49.260;10.496;2023-11-19T07:16:14;1.38;;;0.90;;
26600;SDS011;14241;49.260;10.496;2023-11-19T07:18:39;2.15;;;0.80;;
26600;SDS011;14241;49.260;10.496;2023-11-19T07:21:04;1.20;;;1.10;;
26600;SDS011;14241;49.260;10.496;2023-11-19T07:23:30;1.02;;;0.90;;
26600;SDS011;14241;49.260;10.496;2023-11-19T07:25:56;1.25;;;1.15;;
26600;SDS011;14241;49.260;10.496;2023-11-19T07:28:21;1.10;;;1.00;;
26600;SDS011;14241;49.260;10.496;2023-11-19T07:30:46;0.97;;;0.97;;
26600;SDS011;14241;49.260;10.496;2023-11-19T07:33:12;1.30;;;1.20;;
26600;SDS011;14241;49.260;10.496;2023-11-19T07:35:39;1.10;;;1.05;;
26600;SDS011;14241;49.260;10.496;2023-11-19T07:38:04;1.27;;;1.10;;
26600;SDS011;14241;49.260;10.496;2023-11-19T07:40:30;1.45;;;1.05;;
26600;SDS011;14241;49.260;10.496;2023-11-19T07:42:55;1.30;;;0.93;;
26600;SDS011;14241;49.260;10.496;2023-11-19T07:45:20;0.80;;;0.80;;
26600;SDS011;14241;49.260;10.496;2023-11-19T07:47:46;2.58;;;1.20;;
26600;SDS011;14241;49.260;10.496;2023-11-19T07:50:11;1.47;;;0.90;;
26600;SDS011;14241;49.260;10.496;2023-11-19T07:52:39;2.25;;;1.75;;
26600;SDS011;14241;49.260;10.496;2023-11-19T07:55:04;5.43;;;3.33;;
26600;SDS011;14241;49.260;10.496;2023-11-19T07:57:30;2.78;;;2.58;;
26600;SDS011;14241;49.260;10.496;2023-11-19T07:59:56;1.58;;;1.35;;
26600;SDS011;14241;49.260;10.496;2023-11-19T08:02:21;2.42;;;1.58;;
26600;SDS011;14241;49.260;10.496;2023-11-19T08:04:46;2.38;;;1.23;;
26600;SDS011;14241;49.260;10.496;2023-11-19T08:07:15;2.75;;;1.45;;
26600;SDS011;14241;49.260;10.496;2023-11-19T08:09:40;3.23;;;1.40;;
26600;SDS011;14241;49.260;10.496;2023-11-19T08:12:05;3.07;;;2.03;;
26600;SDS011;14241;49.260;10.496;2023-11-19T08:14:31;2.22;;;1.25;;
26600;SDS011;14241;49.260;10.496;2023-11-19T08:16:57;3.45;;;1.30;;
26600;SDS011;14241;49.260;10.496;2023-11-19T08:19:23;2.50;;;1.40;;
26600;SDS011;14241;49.260;10.496;2023-11-19T08:21:48;2.57;;;2.10;;
26600;SDS011;14241;49.260;10.496;2023-11-19T08:24:13;1.63;;;1.10;;
26600;SDS011;14241;49.260;10.496;2023-11-19T08:26:38;2.80;;;1.40;;
26600;SDS011;14241;49.260;10.496;2023-11-19T08:29:04;1.20;;;1.10;;
26600;SDS011;14241;49.260;10.496;2023-11-19T08:31:29;3.70;;;1.13;;
26600;SDS011;14241;49.260;10.496;2023-11-19T08:33:54;3.10;;;1.23;;
26600;SDS011;14241;49.260;10.496;2023-11-19T08:36:19;1.85;;;1.40;;
26600;SDS011;14241;49.260;10.496;2023-11-19T08:38:45;3.00;;;1.20;;
26600;SDS011;14241;49.260;10.496;2023-11-19T08:41:11;2.72;;;1.20;;
26600;SDS011;14241;49.260;10.496;2023-11-19T08:43:36;1.17;;;0.93;;
26600;SDS011;14241;49.260;10.496;2023-11-19T08:46:01;3.57;;;1.33;;
26600;SDS011;14241;49.260;10.496;2023-11-19T08:48:27;3.90;;;0.90;;
26600;SDS011;14241;49.260;10.496;2023-11-19T08:50:52;4.23;;;1.10;;
26600;SDS011;14241;49.260;10.496;2023-11-19T08:53:17;1.93;;;1.00;;
26600;SDS011;14241;49.260;10.496;2023-11-19T08:55:42;5.40;;;1.07;;
26600;SDS011;14241;49.260;10.496;2023-11-19T08:58:07;5.80;;;1.10;;
26600;SDS011;14241;49.260;10.496;2023-11-19T09:00:32;2.23;;;1.20;;
26600;SDS011;14241;49.260;10.496;2023-11-19T09:02:58;3.10;;;1.13;;
26600;SDS011;14241;49.260;10.496;2023-11-19T09:05:23;3.20;;;0.90;;
26600;SDS011;14241;49.260;10.496;2023-11-19T09:07:48;3.27;;;0.90;;
26600;SDS011;14241;49.260;10.496;2023-11-19T09:10:14;2.05;;;1.00;;
26600;SDS011;14241;49.260;10.496;2023-11-19T09:12:39;5.40;;;1.10;;
26600;SDS011;14241;49.260;10.496;2023-11-19T09:15:05;1.57;;;1.00;;
26600;SDS011;14241;49.260;10.496;2023-11-19T09:17:30;1.88;;;1.10;;
26600;SDS011;14241;49.260;10.496;2023-11-19T09:19:55;1.63;;;0.93;;
26600;SDS011;14241;49.260;10.496;2023-11-19T09:22:20;3.17;;;1.00;;
26600;SDS011;14241;49.260;10.496;2023-11-19T09:24:46;1.90;;;1.02;;
26600;SDS011;14241;49.260;10.496;2023-11-19T09:27:11;3.33;;;1.00;;
26600;SDS011;14241;49.260;10.496;2023-11-19T09:29:36;1.92;;;0.90;;
26600;SDS011;14241;49.260;10.496;2023-11-19T09:32:01;5.90;;;1.20;;
26600;SDS011;14241;49.260;10.496;2023-11-19T09:34:27;3.22;;;1.38;;
26600;SDS011;14241;49.260;10.496;2023-11-19T09:36:53;4.25;;;1.10;;
26600;SDS011;14241;49.260;10.496;2023-11-19T09:39:18;2.37;;;0.90;;
26600;SDS011;14241;49.260;10.496;2023-11-19T09:41:44;1.70;;;1.17;;
26600;SDS011;14241;49.260;10.496;2023-11-19T09:44:10;1.95;;;0.70;;
26600;SDS011;14241;49.260;10.496;2023-11-19T09:46:36;2.17;;;0.93;;
26600;SDS011;14241;49.260;10.496;2023-11-19T09:49:02;1.20;;;0.70;;
26600;SDS011;14241;49.260;10.496;2023-11-19T09:51:27;1.58;;;0.82;;
26600;SDS011;14241;49.260;10.496;2023-11-19T09:53:52;2.03;;;0.95;;
26600;SDS011;14241;49.260;10.496;2023-11-19T09:56:18;2.33;;;1.00;;
26600;SDS011;14241;49.260;10.496;2023-11-19T09:58:43;2.35;;;0.70;;
26600;SDS011;14241;49.260;10.496;2023-11-19T10:01:09;2.37;;;1.00;;
26600;SDS011;14241;49.260;10.496;2023-11-19T10:03:37;2.88;;;1.00;;
26600;SDS011;14241;49.260;10.496;2023-11-19T10:06:08;2.38;;;0.88;;
26600;SDS011;14241;49.260;10.496;2023-11-19T10:08:34;2.13;;;0.90;;
26600;SDS011;14241;49.260;10.496;2023-11-19T10:11:01;2.00;;;0.88;;
26600;SDS011;14241;49.260;10.496;2023-11-19T10:13:27;3.37;;;1.03;;
26600;SDS011;14241;49.260;10.496;2023-11-19T10:15:53;3.97;;;1.23;;
26600;SDS011;14241;49.260;10.496;2023-11-19T10:18:18;2.03;;;1.00;;
26600;SDS011;14241;49.260;10.496;2023-11-19T10:20:43;2.13;;;0.93;;
26600;SDS011;14241;49.260;10.496;2023-11-19T10:23:09;1.38;;;0.75;;
26600;SDS011;14241;49.260;10.496;2023-11-19T10:25:36;1.75;;;0.98;;
26600;SDS011;14241;49.260;10.496;2023-11-19T10:28:01;1.00;;;0.80;;
26600;SDS011;14241;49.260;10.496;2023-11-19T10:30:28;5.10;;;1.15;;
26600;SDS011;14241;49.260;10.496;2023-11-19T10:38:18;2.70;;;0.75;;
26600;SDS011;14241;49.260;10.496;2023-11-19T10:40:44;2.22;;;0.85;;
26600;SDS011;14241;49.260;10.496;2023-11-19T10:43:09;1.40;;;0.85;;
26600;SDS011;14241;49.260;10.496;2023-11-19T10:45:35;1.98;;;0.80;;
26600;SDS011;14241;49.260;10.496;2023-11-19T10:48:00;3.20;;;1.33;;
26600;SDS011;14241;49.260;10.496;2023-11-19T10:50:27;2.92;;;0.80;;
26600;SDS011;14241;49.260;10.496;2023-11-19T10:52:55;2.15;;;1.00;;
26600;SDS011;14241;49.260;10.496;2023-11-19T10:55:26;4.00;;;1.35;;
26600;SDS011;14241;49.260;10.496;2023-11-19T10:57:52;2.92;;;1.08;;
26600;SDS011;14241;49.260;10.496;2023-11-19T11:00:18;3.10;;;1.05;;
26600;SDS011;14241;49.260;10.496;2023-11-19T11:02:44;2.58;;;0.98;;
26600;SDS011;14241;49.260;10.496;2023-11-19T11:05:11;2.65;;;0.90;;
26600;SDS011;14241;49.260;10.496;2023-11-19T11:07:37;1.80;;;1.00;;
26600;SDS011;14241;49.260;10.496;2023-11-19T11:10:04;2.25;;;1.02;;
26600;SDS011;14241;49.260;10.496;2023-11-19T11:12:31;2.30;;;0.95;;
26600;SDS011;14241;49.260;10.496;2023-11-19T11:14:59;4.97;;;1.48;;
26600;SDS011;14241;49.260;10.496;2023-11-19T11:17:25;3.67;;;0.90;;
26600;SDS011;14241;49.260;10.496;2023-11-19T11:19:53;5.60;;;0.93;;
26600;SDS011;14241;49.260;10.496;2023-11-19T11:22:18;1.97;;;0.83;;
26600;SDS011;14241;49.260;10.496;2023-11-19T11:24:50;3.35;;;1.27;;
26600;SDS011;14241;49.260;10.496;2023-11-19T11:27:28;4.13;;;0.80;;
26600;SDS011;14241;49.260;10.496;2023-11-19T11:30:09;2.67;;;0.73;;
26600;SDS011;14241;49.260;10.496;2023-11-19T11:32:54;2.90;;;0.80;;
26600;SDS011;14241;49.260;10.496;2023-11-19T11:38:06;2.75;;;0.90;;
26600;SDS011;14241;49.260;10.496;2023-11-19T11:40:31;3.30;;;1.00;;
26600;SDS011;14241;49.260;10.496;2023-11-19T11:42:57;1.30;;;0.73;;
26600;SDS011;14241;49.260;10.496;2023-11-19T11:45:35;2.37;;;1.07;;
26600;SDS011;14241;49.260;10.496;2023-11-19T11:48:08;1.92;;;0.82;;
26600;SDS011;14241;49.260;10.496;2023-11-19T11:50:34;3.17;;;1.00;;
26600;SDS011;14241;49.260;10.496;2023-11-19T11:55:37;2.38;;;0.80;;
26600;SDS011;14241;49.260;10.496;2023-11-19T11:58:05;1.73;;;0.70;;
26600;SDS011;14241;49.260;10.496;2023-11-19T12:00:37;0.90;;;0.70;;
26600;SDS011;14241;49.260;10.496;2023-11-19T12:03:03;2.70;;;0.65;;
26600;SDS011;14241;49.260;10.496;2023-11-19T12:05:29;1.67;;;0.70;;
26600;SDS011;14241;49.260;10.496;2023-11-19T12:07:55;1.23;;;0.68;;
26600;SDS011;14241;49.260;10.496;2023-11-19T12:10:24;1.70;;;0.77;;
26600;SDS011;14241;49.260;10.496;2023-11-19T12:12:49;1.25;;;0.77;;
26600;SDS011;14241;49.260;10.496;2023-11-19T12:15:17;3.70;;;1.10;;
26600;SDS011;14241;49.260;10.496;2023-11-19T12:17:48;2.65;;;0.93;;
26600;SDS011;14241;49.260;10.496;2023-11-19T12:20:17;3.58;;;0.85;;
26600;SDS011;14241;49.260;10.496;2023-11-19T12:22:44;3.58;;;1.05;;
26600;SDS011;14241;49.260;10.496;2023-11-19T12:25:10;2.40;;;0.90;;
26600;SDS011;14241;49.260;10.496;2023-11-19T12:27:41;1.70;;;0.90;;
26600;SDS011;14241;49.260;10.496;2023-11-19T12:30:07;3.22;;;0.93;;
26600;SDS011;14241;49.260;10.496;2023-11-19T12:35:05;4.57;;;1.10;;
26600;SDS011;14241;49.260;10.496;2023-11-19T12:37:30;2.28;;;0.82;;
26600;SDS011;14241;49.260;10.496;2023-11-19T12:39:56;6.10;;;1.48;;
26600;SDS011;14241;49.260;10.496;2023-11-19T12:42:34;3.50;;;0.63;;
26600;SDS011;14241;49.260;10.496;2023-11-19T12:44:59;3.90;;;1.50;;
26600;SDS011;14241;49.260;10.496;2023-11-19T12:47:24;1.77;;;0.93;;
26600;SDS011;14241;49.260;10.496;2023-11-19T12:49:59;2.40;;;1.03;;
26600;SDS011;14241;49.260;10.496;2023-11-19T12:52:24;3.25;;;1.10;;
26600;SDS011;14241;49.260;10.496;2023-11-19T12:54:50;3.40;;;1.10;;
26600;SDS011;14241;49.260;10.496;2023-11-19T12:57:16;4.03;;;1.38;;
26600;SDS011;14241;49.260;10.496;2023-11-19T12:59:41;1.23;;;0.90;;
26600;SDS011;14241;49.260;10.496;2023-11-19T13:02:08;2.47;;;0.90;;
26600;SDS011;14241;49.260;10.496;2023-11-19T13:04:33;4.78;;;0.98;;
26600;SDS011;14241;49.260;10.496;2023-11-19T13:06:59;4.95;;;0.80;;
26600;SDS011;14241;49.260;10.496;2023-11-19T13:09:24;1.73;;;0.75;;
26600;SDS011;14241;49.260;10.496;2023-11-19T13:11:50;1.83;;;0.90;;
26600;SDS011;14241;49.260;10.496;2023-11-19T13:14:16;3.20;;;1.00;;
26600;SDS011;14241;49.260;10.496;2023-11-19T13:16:41;3.58;;;1.02;;
26600;SDS011;14241;49.260;10.496;2023-11-19T13:19:07;5.47;;;1.10;;
26600;SDS011;14241;49.260;10.496;2023-11-19T13:21:33;4.57;;;0.60;;
26600;SDS011;14241;49.260;10.496;2023-11-19T13:23:59;2.85;;;0.70;;
26600;SDS011;14241;49.260;10.496;2023-11-19T13:26:24;1.85;;;0.60;;
26600;SDS011;14241;49.260;10.496;2023-11-19T13:28:49;1.87;;;1.20;;
26600;SDS011;14241;49.260;10.496;2023-11-19T13:31:14;4.10;;;0.90;;
26600;SDS011;14241;49.260;10.496;2023-11-19T13:33:40;2.35;;;0.98;;
26600;SDS011;14241;49.260;10.496;2023-11-19T13:36:05;2.92;;;1.17;;
26600;SDS011;14241;49.260;10.496;2023-11-19T13:38:31;4.90;;;1.25;;
26600;SDS011;14241;49.260;10.496;2023-11-19T13:40:57;2.38;;;0.90;;
26600;SDS011;14241;49.260;10.496;2023-11-19T13:43:23;5.50;;;1.30;;
26600;SDS011;14241;49.260;10.496;2023-11-19T13:45:49;1.63;;;0.90;;
26600;SDS011;14241;49.260;10.496;2023-11-19T13:48:14;2.47;;;1.10;;
26600;SDS011;14241;49.260;10.496;2023-11-19T13:50:39;3.97;;;0.97;;
26600;SDS011;14241;49.260;10.496;2023-11-19T13:53:04;6.67;;;1.17;;
26600;SDS011;14241;49.260;10.496;2023-11-19T13:55:29;2.28;;;1.02;;
26600;SDS011;14241;49.260;10.496;2023-11-19T13:57:55;2.47;;;1.25;;
26600;SDS011;14241;49.260;10.496;2023-11-19T14:00:20;5.82;;;1.40;;
26600;SDS011;14241;49.260;10.496;2023-11-19T14:02:47;3.50;;;1.48;;
26600;SDS011;14241;49.260;10.496;2023-11-19T14:05:13;4.68;;;1.10;;
26600;SDS011;14241;49.260;10.496;2023-11-19T14:07:42;2.05;;;1.30;;
26600;SDS011;14241;49.260;10.496;2023-11-19T14:10:08;4.00;;;1.15;;
26600;SDS011;14241;49.260;10.496;2023-11-19T14:12:37;4.47;;;1.17;;
26600;SDS011;14241;49.260;10.496;2023-11-19T14:15:03;3.45;;;1.40;;
26600;SDS011;14241;49.260;10.496;2023-11-19T14:17:30;4.53;;;1.50;;
26600;SDS011;14241;49.260;10.496;2023-11-19T14:19:56;4.20;;;1.23;;
26600;SDS011;14241;49.260;10.496;2023-11-19T14:22:21;2.20;;;1.30;;
26600;SDS011;14241;49.260;10.496;2023-11-19T14:24:46;2.35;;;1.40;;
26600;SDS011;14241;49.260;10.496;2023-11-19T14:27:11;2.30;;;1.27;;
26600;SDS011;14241;49.260;10.496;2023-11-19T14:29:37;3.65;;;1.30;;
26600;SDS011;14241;49.260;10.496;2023-11-19T14:32:02;2.47;;;1.13;;
26600;SDS011;14241;49.260;10.496;2023-11-19T14:34:28;2.38;;;1.25;;
26600;SDS011;14241;49.260;10.496;2023-11-19T14:36:54;4.13;;;1.10;;